createdAt,value
2018-06-20T00:02:07.516Z,7.78
2018-06-20T00:04:36.729Z,7.80
2018-06-20T00:07:06.934Z,7.15
2018-06-20T00:09:36.666Z,9.27
2018-06-20T00:12:10.849Z,8.07
2018-06-20T00:14:56.684Z,6.18
2018-06-20T00:17:26.319Z,7.65
2018-06-20T00:20:00.360Z,8.68
2018-06-20T00:22:30.917Z,8.65
2018-06-20T00:25:00.398Z,7.28
2018-06-20T00:27:35.529Z,7.30
2018-06-20T00:30:15.826Z,8.48
2018-06-20T00:32:47.399Z,9.43
2018-06-20T00:35:16.748Z,8.90
2018-06-20T00:37:48.144Z,10.50
2018-06-20T00:40:29.196Z,11.07
2018-06-20T00:42:59.584Z,11.77
2018-06-20T00:45:30.496Z,9.40
2018-06-20T00:48:03.262Z,10.15
2018-06-20T00:50:32.933Z,10.05
2018-06-20T00:53:01.646Z,10.32
2018-06-20T00:55:30.891Z,10.10
2018-06-20T00:58:00.031Z,9.23
2018-06-20T01:00:29.421Z,11.57
2018-06-20T01:02:58.138Z,12.10
2018-06-20T01:05:27.138Z,9.43
2018-06-20T01:07:56.121Z,9.43
2018-06-20T01:10:25.068Z,9.52
2018-06-20T01:12:53.730Z,9.80
2018-06-20T01:15:22.390Z,9.57
2018-06-20T01:17:51.108Z,9.30
2018-06-20T01:20:20.211Z,9.13
2018-06-20T01:22:48.869Z,11.65
2018-06-20T01:25:17.939Z,10.68
2018-06-20T01:27:48.491Z,10.23
2018-06-20T01:30:18.028Z,10.07
2018-06-20T01:32:46.867Z,13.15
2018-06-20T01:35:17.978Z,10.38
2018-06-20T01:37:46.960Z,13.50
2018-06-20T01:40:15.668Z,12.70
2018-06-20T01:42:44.733Z,13.00
2018-06-20T01:45:13.265Z,12.37
2018-06-20T01:47:42.056Z,12.43
2018-06-20T01:50:10.764Z,13.57
2018-06-20T01:52:39.513Z,12.63
2018-06-20T01:55:08.551Z,12.93
2018-06-20T01:57:37.486Z,11.32
2018-06-20T02:00:06.662Z,12.18
2018-06-20T02:02:35.696Z,11.98
2018-06-20T02:05:04.389Z,11.43
2018-06-20T02:07:33.310Z,11.85
2018-06-20T02:10:02.709Z,11.18
2018-06-20T02:12:31.682Z,10.77
2018-06-20T02:15:00.730Z,12.93
2018-06-20T02:17:29.805Z,11.45
2018-06-20T02:19:59.097Z,11.90
2018-06-20T02:22:27.974Z,10.05
2018-06-20T02:24:56.624Z,10.20
2018-06-20T02:27:25.304Z,12.10
2018-06-20T02:29:54.082Z,11.48
2018-06-20T02:32:22.805Z,11.48
2018-06-20T02:34:51.570Z,10.77
2018-06-20T02:37:22.972Z,11.57
2018-06-20T02:39:51.648Z,10.23
2018-06-20T02:42:20.312Z,11.02
2018-06-20T02:44:49.058Z,12.27
2018-06-20T02:47:17.754Z,13.82
2018-06-20T02:49:46.466Z,11.95
2018-06-20T02:52:15.229Z,13.95
2018-06-20T02:54:43.980Z,11.68
2018-06-20T02:57:12.667Z,10.77
2018-06-20T02:59:41.342Z,14.43
2018-06-20T03:02:10.067Z,14.23
2018-06-20T03:04:38.819Z,13.05
2018-06-20T03:07:07.547Z,12.23
2018-06-20T03:09:36.196Z,11.55
2018-06-20T03:12:04.917Z,11.82
2018-06-20T03:14:33.748Z,12.10
2018-06-20T03:17:02.466Z,10.82
2018-06-20T03:19:31.193Z,13.38
2018-06-20T03:21:59.851Z,11.27
2018-06-20T03:24:28.558Z,12.98
2018-06-20T03:26:57.312Z,11.43
2018-06-20T03:29:25.980Z,10.90
2018-06-20T03:31:54.739Z,13.43
2018-06-20T03:34:23.421Z,13.45
2018-06-20T03:36:52.212Z,14.15
2018-06-20T03:39:20.884Z,12.80
2018-06-20T03:41:49.609Z,12.98
2018-06-20T03:44:18.337Z,14.30
2018-06-20T03:46:47.042Z,11.73
2018-06-20T03:49:15.805Z,14.68
2018-06-20T03:51:44.669Z,13.98
2018-06-20T03:54:13.444Z,12.88
2018-06-20T03:56:42.369Z,10.70
2018-06-20T03:59:11.145Z,11.05
2018-06-20T04:01:40.107Z,10.43
2018-06-20T04:04:08.812Z,15.77
2018-06-20T04:06:37.557Z,15.68
2018-06-20T04:09:06.359Z,11.50
2018-06-20T04:11:35.080Z,8.90
2018-06-20T04:14:03.901Z,12.02
2018-06-20T04:16:32.619Z,13.82
2018-06-20T04:19:01.295Z,13.07
2018-06-20T04:21:30.070Z,13.38
2018-06-20T04:23:58.754Z,12.48
2018-06-20T04:26:27.459Z,11.40
2018-06-20T04:28:56.132Z,12.63
2018-06-20T04:31:26.074Z,12.00
2018-06-20T04:33:54.795Z,11.02
2018-06-20T04:36:23.532Z,13.18
2018-06-20T04:38:54.800Z,11.40
2018-06-20T04:41:23.555Z,11.27
2018-06-20T04:43:55.182Z,13.40
2018-06-20T04:46:24.151Z,13.65
2018-06-20T04:48:52.824Z,15.20
2018-06-20T04:51:21.565Z,12.15
2018-06-20T04:53:50.256Z,15.52
2018-06-20T04:56:18.984Z,12.98
2018-06-20T04:58:47.702Z,13.50
2018-06-20T05:01:16.847Z,17.05
2018-06-20T05:03:45.523Z,19.25
2018-06-20T05:06:14.238Z,14.77
2018-06-20T05:08:42.939Z,17.35
2018-06-20T05:11:11.652Z,15.77
2018-06-20T05:13:40.432Z,16.00
2018-06-20T05:16:09.151Z,17.95
2018-06-20T05:18:38.387Z,18.17
2018-06-20T05:21:07.052Z,17.52
2018-06-20T05:23:35.756Z,17.75
2018-06-20T05:26:16.548Z,19.55
2018-06-20T05:28:45.242Z,20.88
2018-06-20T05:31:13.941Z,19.35
2018-06-20T05:33:42.629Z,22.35
2018-06-20T05:36:11.333Z,22.27
2018-06-20T05:38:40.431Z,21.42
2018-06-20T05:41:11.223Z,22.08
2018-06-20T05:43:41.656Z,20.52
2018-06-20T05:46:10.579Z,23.45
2018-06-20T05:48:39.315Z,22.25
2018-06-20T05:51:09.044Z,21.45
2018-06-20T05:53:37.800Z,24.30
2018-06-20T05:56:06.801Z,23.62
2018-06-20T05:58:35.720Z,18.48
2018-06-20T06:01:04.447Z,22.17
2018-06-20T06:03:33.083Z,20.58
2018-06-20T06:06:01.807Z,25.98
2018-06-20T06:08:30.529Z,19.35
2018-06-20T06:10:59.220Z,20.70
2018-06-20T06:13:27.986Z,25.08
2018-06-20T06:15:59.512Z,21.92
2018-06-20T06:18:28.242Z,22.48
2018-06-20T06:20:57.329Z,20.40
2018-06-20T06:23:26.322Z,23.25
2018-06-20T06:25:55.096Z,22.42
2018-06-20T06:28:23.816Z,20.67
2018-06-20T06:30:53.893Z,19.90
2018-06-20T06:33:22.996Z,20.48
2018-06-20T06:38:39.880Z,19.73
2018-06-20T06:41:08.777Z,19.30
2018-06-20T06:43:37.526Z,23.10
2018-06-20T06:46:06.198Z,19.52
2018-06-20T06:48:34.975Z,20.30
2018-06-20T06:51:03.673Z,20.85
2018-06-20T06:53:32.405Z,19.92
2018-06-20T06:56:01.278Z,18.60
2018-06-20T06:58:30.095Z,20.12
2018-06-20T07:00:58.865Z,18.98
2018-06-20T07:03:27.654Z,18.48
2018-06-20T07:05:56.428Z,21.77
2018-06-20T07:08:25.099Z,19.90
2018-06-20T07:10:53.820Z,19.20
2018-06-20T07:13:22.510Z,21.92
2018-06-20T07:15:51.306Z,21.00
2018-06-20T07:18:20.182Z,19.85
2018-06-20T07:20:50.626Z,20.83
2018-06-20T07:23:19.266Z,18.25
2018-06-20T07:25:48.091Z,17.35
2018-06-20T07:28:20.195Z,20.30
2018-06-20T07:30:49.365Z,18.02
2018-06-20T07:33:18.331Z,17.37
2018-06-20T07:35:47.162Z,18.10
2018-06-20T07:38:15.864Z,19.83
2018-06-20T07:40:45.151Z,16.33
2018-06-20T07:43:14.044Z,17.40
2018-06-20T07:45:42.787Z,16.95
2018-06-20T07:48:11.712Z,17.02
2018-06-20T07:50:40.687Z,14.13
2018-06-20T07:53:09.826Z,14.02
2018-06-20T07:55:38.643Z,13.27
2018-06-20T07:58:07.316Z,17.27
2018-06-20T08:00:36.119Z,16.02
2018-06-20T08:03:11.282Z,15.23
2018-06-20T08:05:49.231Z,14.38
2018-06-20T08:08:36.609Z,13.90
2018-06-20T08:11:05.357Z,12.95
2018-06-20T08:13:36.016Z,13.15
2018-06-20T08:16:06.547Z,13.07
2018-06-20T08:18:38.265Z,15.00
2018-06-20T08:21:07.418Z,11.30
2018-06-20T08:23:36.099Z,13.43
2018-06-20T08:26:04.806Z,12.18
2018-06-20T08:28:33.516Z,11.27
2018-06-20T08:31:02.274Z,12.60
2018-06-20T08:33:31.009Z,11.80
2018-06-20T08:35:59.707Z,13.18
2018-06-20T08:38:28.401Z,13.05
2018-06-20T08:40:57.079Z,15.10
2018-06-20T08:43:25.817Z,14.35
2018-06-20T08:45:54.461Z,10.93
2018-06-20T08:48:24.156Z,10.68
2018-06-20T08:50:52.835Z,10.05
2018-06-20T08:53:21.542Z,10.35
2018-06-20T08:55:50.195Z,8.60
2018-06-20T08:58:19.007Z,8.80
2018-06-20T09:00:47.704Z,6.37
2018-06-20T09:03:16.403Z,6.18
2018-06-20T09:06:03.331Z,5.45
2018-06-20T09:08:41.113Z,4.90
2018-06-20T09:11:09.729Z,4.65
2018-06-20T09:13:41.596Z,4.50
2018-06-20T09:16:10.418Z,4.50
2018-06-20T09:18:39.272Z,6.87
2018-06-20T09:21:08.835Z,5.93
2018-06-20T09:23:39.223Z,5.10
2018-06-20T09:26:08.965Z,5.70
2018-06-20T09:28:37.678Z,4.75
2018-06-20T09:31:06.372Z,4.72
2018-06-20T09:33:35.092Z,5.15
2018-06-20T09:36:03.787Z,6.37
2018-06-20T09:38:32.538Z,4.50
2018-06-20T09:41:01.317Z,3.47
2018-06-20T09:43:30.033Z,3.92
2018-06-20T09:45:59.739Z,3.47
2018-06-20T09:48:28.490Z,6.40
2018-06-20T09:50:57.237Z,4.15
2018-06-20T09:53:25.973Z,4.65
2018-06-20T09:55:54.700Z,4.05
2018-06-20T09:58:23.609Z,4.70
2018-06-20T10:01:14.470Z,5.85
2018-06-20T10:03:55.054Z,4.10
2018-06-20T10:06:23.831Z,5.95
2018-06-20T10:08:52.636Z,3.92
2018-06-20T10:11:21.439Z,6.12
2018-06-20T10:13:50.017Z,5.13
2018-06-20T10:16:18.745Z,3.80
2018-06-20T10:18:47.444Z,6.00
2018-06-20T10:21:16.234Z,7.85
2018-06-20T10:23:44.875Z,6.28
2018-06-20T10:26:13.497Z,5.50
2018-06-20T10:28:42.194Z,5.43
2018-06-20T10:31:10.937Z,4.15
2018-06-20T10:33:39.604Z,5.75
2018-06-20T10:36:08.329Z,5.32
2018-06-20T10:38:37.039Z,4.55
2018-06-20T10:41:05.737Z,7.43
2018-06-20T10:43:34.408Z,5.45
2018-06-20T10:46:05.656Z,6.50
2018-06-20T10:48:34.391Z,5.15
2018-06-20T10:51:04.501Z,6.85
2018-06-20T10:53:33.204Z,5.40
2018-06-20T10:56:03.470Z,5.07
2018-06-20T10:58:32.887Z,4.87
2018-06-20T11:01:05.016Z,5.10
2018-06-20T11:03:53.191Z,5.28
2018-06-20T11:06:26.046Z,6.18
2018-06-20T11:09:17.373Z,4.55
2018-06-20T11:11:57.354Z,5.05
2018-06-20T11:14:34.614Z,5.50
2018-06-20T11:17:05.990Z,4.15
2018-06-20T11:19:37.026Z,6.05
2018-06-20T11:22:09.403Z,4.83
2018-06-20T11:24:48.613Z,3.60
2018-06-20T11:27:17.653Z,4.97
2018-06-20T11:29:46.677Z,6.55
2018-06-20T11:32:19.436Z,4.78
2018-06-20T11:34:50.145Z,7.78
2018-06-20T11:37:33.733Z,3.87
2018-06-20T11:40:05.167Z,5.37
2018-06-20T11:42:35.810Z,4.55
2018-06-20T11:45:06.232Z,6.80
2018-06-20T11:47:41.684Z,5.00
2018-06-20T11:50:13.331Z,4.00
2018-06-20T11:52:47.060Z,5.03
2018-06-20T11:55:16.178Z,5.03
2018-06-20T11:57:47.103Z,4.22
2018-06-20T12:00:34.681Z,6.90
2018-06-20T12:03:04.198Z,5.82
2018-06-20T12:05:40.156Z,3.58
2018-06-20T12:08:24.459Z,4.03
2018-06-20T12:11:08.962Z,3.53
2018-06-20T12:13:56.303Z,5.53
2018-06-20T12:16:25.282Z,3.90
2018-06-20T12:22:26.945Z,3.30
2018-06-20T12:25:19.043Z,4.55
2018-06-20T12:28:14.522Z,6.05
2018-06-20T12:34:29.660Z,3.10
2018-06-20T12:37:21.181Z,4.15
2018-06-20T12:39:53.965Z,2.70
2018-06-20T12:42:23.682Z,2.97
2018-06-20T12:45:07.319Z,6.82
2018-06-20T12:47:36.063Z,3.42
2018-06-20T12:50:04.929Z,4.80
2018-06-20T12:52:33.653Z,3.50
2018-06-20T12:55:02.407Z,2.70
2018-06-20T12:57:31.115Z,5.40
2018-06-20T12:59:59.902Z,2.90
2018-06-20T13:02:30.269Z,4.97
2018-06-20T13:04:59.006Z,3.33
2018-06-20T13:07:27.978Z,2.65
2018-06-20T13:09:56.698Z,3.58
2018-06-20T13:12:25.412Z,3.05
2018-06-20T13:14:54.231Z,3.70
2018-06-20T13:17:23.703Z,4.30
2018-06-20T13:19:52.603Z,5.00
2018-06-20T13:22:21.367Z,3.00
2018-06-20T13:24:50.404Z,2.37
2018-06-20T13:27:25.800Z,3.17
2018-06-20T13:29:57.812Z,3.62
2018-06-20T13:32:40.420Z,3.65
2018-06-20T13:35:18.853Z,3.92
2018-06-20T13:37:52.916Z,2.30
2018-06-20T13:40:25.885Z,1.92
2018-06-20T13:42:56.646Z,2.08
2018-06-20T13:45:33.628Z,2.10
2018-06-20T13:48:06.899Z,6.17
2018-06-20T13:50:38.428Z,2.53
2018-06-20T13:53:07.790Z,2.25
2018-06-20T13:55:41.275Z,2.10
2018-06-20T13:58:10.354Z,3.47
2018-06-20T14:00:40.998Z,2.85
2018-06-20T14:03:10.109Z,6.18
2018-06-20T14:05:40.433Z,6.35
2018-06-20T14:08:14.598Z,5.32
2018-06-20T14:10:44.512Z,6.68
2018-06-20T14:13:13.426Z,3.35
2018-06-20T14:15:44.208Z,4.18
2018-06-20T14:18:14.912Z,4.78
2018-06-20T14:20:55.076Z,3.83
2018-06-20T14:23:26.701Z,3.40
2018-06-20T14:26:01.832Z,2.53
2018-06-20T14:28:31.786Z,3.47
2018-06-20T14:31:01.440Z,3.25
2018-06-20T14:33:37.412Z,3.50
2018-06-20T14:36:17.363Z,4.25
2018-06-20T14:38:50.219Z,2.35
2018-06-20T14:41:19.949Z,2.42
2018-06-20T14:43:51.700Z,2.33
2018-06-20T14:46:20.390Z,2.75
2018-06-20T14:48:49.195Z,2.33
2018-06-20T14:51:17.989Z,3.22
2018-06-20T14:53:46.757Z,3.33
2018-06-20T14:56:15.415Z,2.08
2018-06-20T14:58:44.189Z,2.08
2018-06-20T15:01:12.992Z,2.20
2018-06-20T15:03:41.685Z,2.17
2018-06-20T15:06:10.419Z,3.37
2018-06-20T15:08:39.317Z,2.67
2018-06-20T15:11:08.018Z,2.35
2018-06-20T15:13:37.823Z,3.78
2018-06-20T15:16:06.529Z,3.90
2018-06-20T15:18:35.231Z,4.18
2018-06-20T15:21:03.969Z,3.10
2018-06-20T15:23:32.776Z,3.17
2018-06-20T15:26:03.553Z,2.40
2018-06-20T15:28:38.347Z,2.12
2018-06-20T15:31:12.816Z,2.58
2018-06-20T15:33:44.599Z,3.80
2018-06-20T15:36:22.621Z,3.83
2018-06-20T15:38:51.429Z,3.60
2018-06-20T15:41:20.125Z,2.72
2018-06-20T15:43:49.089Z,2.85
2018-06-20T15:46:17.921Z,6.03
2018-06-20T15:48:46.691Z,4.93
2018-06-20T15:51:15.511Z,3.85
2018-06-20T15:53:44.113Z,3.15
2018-06-20T15:56:12.802Z,2.15
2018-06-20T15:58:41.775Z,2.17
2018-06-20T16:01:16.602Z,2.40
2018-06-20T16:03:53.916Z,2.15
2018-06-20T16:06:29.694Z,3.42
2018-06-20T16:09:04.860Z,2.20
2018-06-20T16:11:37.596Z,2.40
2018-06-20T16:14:14.285Z,3.45
2018-06-20T16:16:49.598Z,3.55
2018-06-20T16:19:23.960Z,4.07
2018-06-20T16:22:00.221Z,3.20
2018-06-20T16:24:31.993Z,2.70
2018-06-20T16:27:01.161Z,2.37
2018-06-20T16:29:39.260Z,5.90
2018-06-20T16:32:08.405Z,3.03
2018-06-20T16:34:37.305Z,3.95
2018-06-20T16:37:05.995Z,4.18
2018-06-20T16:39:34.683Z,2.15
2018-06-20T16:42:03.446Z,3.22
2018-06-20T16:44:33.270Z,4.62
2018-06-20T16:49:50.145Z,6.57
2018-06-20T16:52:19.439Z,4.40
2018-06-20T16:54:48.565Z,4.37
2018-06-20T16:57:18.147Z,3.80
2018-06-20T16:59:47.097Z,4.30
2018-06-20T17:02:19.040Z,2.95
2018-06-20T17:04:47.971Z,3.35
2018-06-20T17:07:16.686Z,4.80
2018-06-20T17:09:45.425Z,4.70
2018-06-20T17:12:15.871Z,3.42
2018-06-20T17:14:45.267Z,3.12
2018-06-20T17:17:23.276Z,2.83
2018-06-20T17:20:26.445Z,4.25
2018-06-20T17:25:45.892Z,2.87
2018-06-20T17:28:14.636Z,3.22
2018-06-20T17:30:43.495Z,3.67
2018-06-20T17:33:12.899Z,2.60
2018-06-20T17:35:44.675Z,1.80
2018-06-20T17:41:06.580Z,1.95
2018-06-20T17:43:37.265Z,2.33
2018-06-20T17:46:06.254Z,2.45
2018-06-20T17:48:44.181Z,2.72
2018-06-20T17:51:12.876Z,3.15
2018-06-20T17:53:43.356Z,3.65
2018-06-20T17:56:12.155Z,2.20
2018-06-20T17:58:40.997Z,3.85
2018-06-20T18:01:12.761Z,3.15
2018-06-20T18:03:41.985Z,3.08
2018-06-20T18:06:33.227Z,6.47
2018-06-20T18:09:20.263Z,8.77
2018-06-20T18:11:51.070Z,15.52
2018-06-20T18:14:19.789Z,19.95
2018-06-20T18:19:45.259Z,7.45
2018-06-20T18:22:13.923Z,8.38
2018-06-20T18:24:42.864Z,8.65
2018-06-20T18:27:11.834Z,9.10
2018-06-20T18:29:40.533Z,8.52
2018-06-20T18:32:09.282Z,34.75
2018-06-20T18:34:38.034Z,18.30
2018-06-20T18:37:06.709Z,15.50
2018-06-20T18:39:53.625Z,16.48
2018-06-20T18:42:22.271Z,10.60
2018-06-20T18:44:51.010Z,5.53
2018-06-20T18:47:19.673Z,5.62
2018-06-20T18:49:48.342Z,5.30
2018-06-20T18:52:17.052Z,3.58
2018-06-20T18:54:45.937Z,3.65
2018-06-20T18:57:14.884Z,3.35
2018-06-20T18:59:46.609Z,2.42
2018-06-20T19:02:15.585Z,2.53
2018-06-20T19:04:44.870Z,3.47
2018-06-20T19:07:31.727Z,5.30
2018-06-20T19:10:00.524Z,5.03
2018-06-20T19:12:30.605Z,2.53
2018-06-20T19:14:59.300Z,9.10
2018-06-20T19:17:27.944Z,13.55
2018-06-20T19:20:07.901Z,14.25
2018-06-20T19:22:36.765Z,6.43
2018-06-20T19:25:05.486Z,8.10
2018-06-20T19:27:34.488Z,7.28
2018-06-20T19:30:03.289Z,6.70
2018-06-20T19:32:32.394Z,5.30
2018-06-20T19:35:01.429Z,9.40
2018-06-20T19:37:31.269Z,5.75
2018-06-20T19:40:00.427Z,4.50
2018-06-20T19:42:29.212Z,3.78
2018-06-20T19:44:59.643Z,4.35
2018-06-20T19:47:29.371Z,5.97
2018-06-20T19:49:58.140Z,4.57
2018-06-20T19:52:28.619Z,6.85
2018-06-20T19:54:58.861Z,4.28
2018-06-20T19:57:28.743Z,7.57
2018-06-20T19:59:57.729Z,6.55
2018-06-20T20:02:26.613Z,5.80
2018-06-20T20:04:55.674Z,5.30
2018-06-20T20:07:24.417Z,4.87
2018-06-20T20:09:53.365Z,12.10
2018-06-20T20:12:22.257Z,6.30
2018-06-20T20:14:51.982Z,7.78
2018-06-20T20:17:20.849Z,6.25
2018-06-20T20:19:49.492Z,11.55
2018-06-20T20:22:18.346Z,5.53
2018-06-20T20:24:47.032Z,5.90
2018-06-20T20:27:15.810Z,8.73
2018-06-20T20:29:44.518Z,5.80
2018-06-20T20:32:13.368Z,6.68
2018-06-20T20:34:42.127Z,5.40
2018-06-20T20:37:11.022Z,6.32
2018-06-20T20:39:40.027Z,9.13
2018-06-20T20:42:09.019Z,5.65
2018-06-20T20:47:28.013Z,9.10
2018-06-20T20:49:59.825Z,7.55
2018-06-20T20:52:28.805Z,6.15
2018-06-20T20:54:57.654Z,8.30
2018-06-20T20:57:26.408Z,6.70
2018-06-20T20:59:55.373Z,8.68
2018-06-20T21:02:24.586Z,8.98
2018-06-20T21:04:53.485Z,6.65
2018-06-20T21:07:22.208Z,6.95
2018-06-20T21:09:54.149Z,5.93
2018-06-20T21:12:24.736Z,5.40
2018-06-20T21:14:54.704Z,5.18
2018-06-20T21:17:24.033Z,6.50
2018-06-20T21:19:54.184Z,6.87
2018-06-20T21:22:24.133Z,10.32
2018-06-20T21:24:52.936Z,6.03
2018-06-20T21:27:22.223Z,5.87
2018-06-20T21:29:51.069Z,6.53
2018-06-20T21:32:20.086Z,6.00
2018-06-20T21:34:48.927Z,8.15
2018-06-20T21:37:18.963Z,7.87
2018-06-20T21:39:47.735Z,6.68
2018-06-20T21:42:16.517Z,7.35
2018-06-20T21:44:45.647Z,6.85
2018-06-20T21:47:14.490Z,8.13
2018-06-20T21:49:43.683Z,6.30
2018-06-20T21:52:12.379Z,6.28
2018-06-20T21:54:41.108Z,7.78
2018-06-20T21:57:09.797Z,9.10
2018-06-20T21:59:38.484Z,9.77
2018-06-20T22:02:07.139Z,8.88
2018-06-20T22:04:35.828Z,7.47
2018-06-20T22:07:04.892Z,6.75
2018-06-20T22:09:33.812Z,7.90
2018-06-20T22:12:02.286Z,7.97
2018-06-20T22:14:30.996Z,5.90
2018-06-20T22:17:00.814Z,6.80
2018-06-20T22:19:29.626Z,9.93
2018-06-20T22:21:58.237Z,6.55
2018-06-20T22:24:26.933Z,6.22
2018-06-20T22:26:57.185Z,9.85
2018-06-20T22:29:25.886Z,13.15
2018-06-20T22:31:54.828Z,9.15
2018-06-20T22:34:23.522Z,6.40
2018-06-20T22:36:53.557Z,7.12
2018-06-20T22:39:22.245Z,8.32
2018-06-20T22:41:50.910Z,7.43
2018-06-20T22:44:19.619Z,6.50
2018-06-20T22:46:50.150Z,7.03
2018-06-20T22:49:24.100Z,5.72
2018-06-20T22:51:56.516Z,6.30
2018-06-20T22:54:26.090Z,8.40
2018-06-20T22:56:56.015Z,9.93
2018-06-20T22:59:24.653Z,8.23
2018-06-20T23:01:53.342Z,7.15
2018-06-20T23:04:22.519Z,7.10
2018-06-20T23:06:51.421Z,9.77
2018-06-20T23:09:20.446Z,7.12
2018-06-20T23:11:49.476Z,7.53
2018-06-20T23:14:18.851Z,7.82
2018-06-20T23:16:47.892Z,6.47
2018-06-20T23:19:18.008Z,8.02
2018-06-20T23:21:46.661Z,8.65
2018-06-20T23:24:16.465Z,8.32
2018-06-20T23:26:45.700Z,7.15
2018-06-20T23:29:15.102Z,6.35
2018-06-20T23:31:44.172Z,7.55
2018-06-20T23:34:13.422Z,7.15
2018-06-20T23:36:42.629Z,6.32
2018-06-20T23:39:11.647Z,7.97
2018-06-20T23:41:40.745Z,6.62
2018-06-20T23:44:09.499Z,8.80
2018-06-20T23:46:39.974Z,9.13
2018-06-20T23:49:11.091Z,9.27
2018-06-20T23:51:39.827Z,8.38
2018-06-20T23:54:08.614Z,9.77
2018-06-20T23:56:37.660Z,9.07
2018-06-20T23:59:06.606Z,9.27
